createdAt,value
2022-12-06T00:00:30.002Z,2.25708
2022-12-06T00:01:39.816Z,2.277222
2022-12-06T00:02:49.395Z,2.277222
2022-12-06T00:03:59.032Z,2.25708
2022-12-06T00:05:07.688Z,2.307434
2022-12-06T00:06:17.343Z,2.307434
2022-12-06T00:07:26.023Z,2.327576
2022-12-06T00:08:33.666Z,2.327576
2022-12-06T00:09:43.318Z,2.327576
2022-12-06T00:10:51.989Z,2.347717
2022-12-06T00:12:01.647Z,2.357788
2022-12-06T00:13:11.360Z,2.357788
2022-12-06T00:14:20.033Z,2.357788
2022-12-06T00:15:29.696Z,2.357788
2022-12-06T00:16:38.414Z,2.37793
2022-12-06T00:17:46.019Z,2.37793
2022-12-06T00:18:55.691Z,2.418213
2022-12-06T00:20:03.374Z,2.438354
2022-12-06T00:21:12.029Z,2.438354
2022-12-06T00:22:21.785Z,2.428284
2022-12-06T00:23:31.679Z,2.428284
2022-12-06T00:24:39.109Z,2.418213
2022-12-06T00:25:47.790Z,2.37793
2022-12-06T00:26:56.452Z,2.357788
2022-12-06T00:28:06.144Z,2.327576
2022-12-06T00:29:15.798Z,2.347717
2022-12-06T00:30:24.444Z,2.327576
2022-12-06T00:31:34.185Z,2.307434
2022-12-06T00:32:42.770Z,2.307434
2022-12-06T00:33:52.444Z,2.317505
2022-12-06T00:35:01.092Z,2.327576
2022-12-06T00:36:08.758Z,2.317505
2022-12-06T00:37:18.457Z,2.317505
2022-12-06T00:38:27.110Z,2.327576
2022-12-06T00:39:35.792Z,2.317505
2022-12-06T00:40:45.447Z,2.317505
2022-12-06T00:41:54.096Z,2.287292
2022-12-06T00:43:03.776Z,2.307434
2022-12-06T00:44:12.448Z,2.307434
2022-12-06T00:45:20.104Z,2.287292
2022-12-06T00:46:29.855Z,2.287292
2022-12-06T00:47:38.432Z,2.25708
2022-12-06T00:48:48.213Z,2.236938
2022-12-06T00:49:58.016Z,2.236938
2022-12-06T00:51:05.444Z,2.216797
2022-12-06T00:52:15.093Z,2.176514
2022-12-06T00:53:23.741Z,2.216797
2022-12-06T00:54:32.423Z,2.216797
2022-12-06T00:55:42.103Z,2.176514
2022-12-06T00:56:50.745Z,2.12616
2022-12-06T00:57:59.412Z,2.095947
2022-12-06T00:59:09.065Z,2.106018
2022-12-06T01:00:17.807Z,2.12616
2022-12-06T01:01:27.543Z,2.13623
2022-12-06T01:02:36.161Z,2.166443
2022-12-06T01:03:43.928Z,2.166443
2022-12-06T01:04:53.450Z,2.166443
2022-12-06T01:06:01.145Z,2.166443
2022-12-06T01:07:10.790Z,2.176514
2022-12-06T01:08:20.588Z,2.196655
2022-12-06T01:09:29.145Z,2.196655
2022-12-06T01:10:38.788Z,2.196655
2022-12-06T01:11:47.519Z,2.196655
2022-12-06T01:12:55.151Z,2.166443
2022-12-06T01:14:04.830Z,2.166443
2022-12-06T01:15:13.475Z,2.166443
2022-12-06T01:16:23.213Z,2.146301
2022-12-06T01:17:32.874Z,2.13623
2022-12-06T01:18:42.622Z,2.106018
2022-12-06T01:19:52.262Z,2.13623
2022-12-06T01:20:59.946Z,2.166443
2022-12-06T01:22:08.742Z,2.176514
2022-12-06T01:23:18.477Z,2.166443
2022-12-06T01:24:26.150Z,2.176514
2022-12-06T01:25:36.281Z,2.176514
2022-12-06T01:26:44.458Z,2.166443
2022-12-06T01:27:52.169Z,2.146301
2022-12-06T01:29:01.820Z,2.146301
2022-12-06T01:30:10.485Z,2.106018
2022-12-06T01:31:18.168Z,2.075806
2022-12-06T01:32:28.797Z,2.065735
2022-12-06T01:33:36.459Z,2.035522
2022-12-06T01:34:46.150Z,2.015381
2022-12-06T01:35:55.809Z,2.035522
2022-12-06T01:37:04.476Z,2.065735
2022-12-06T01:38:14.144Z,2.055664
2022-12-06T01:39:23.804Z,2.015381
2022-12-06T01:40:31.470Z,1.995239
2022-12-06T01:41:41.147Z,1.995239
2022-12-06T01:42:50.792Z,2.035522
2022-12-06T01:43:58.468Z,1.985168
2022-12-06T01:45:08.101Z,1.965027
2022-12-06T01:46:16.878Z,1.954956
2022-12-06T01:47:26.447Z,1.924744
2022-12-06T01:48:35.124Z,1.894531
2022-12-06T01:49:42.776Z,1.87439
2022-12-06T01:50:52.452Z,1.87439
2022-12-06T01:52:00.185Z,1.87439
2022-12-06T01:53:08.798Z,1.88446
2022-12-06T01:54:19.447Z,1.924744
2022-12-06T01:55:29.084Z,1.914673
2022-12-06T01:56:38.724Z,1.844177
2022-12-06T01:57:47.408Z,1.813965
2022-12-06T01:58:57.067Z,1.844177
2022-12-06T02:00:05.735Z,1.813965
2022-12-06T02:01:13.371Z,1.854248
2022-12-06T02:02:23.059Z,1.88446
2022-12-06T02:03:32.717Z,1.88446
2022-12-06T02:04:41.369Z,1.88446
2022-12-06T02:05:51.043Z,1.88446
2022-12-06T02:06:58.697Z,1.914673
2022-12-06T02:08:08.436Z,1.894531
2022-12-06T02:09:18.048Z,1.88446
2022-12-06T02:10:26.701Z,1.88446
2022-12-06T02:11:36.383Z,1.87439
2022-12-06T02:12:45.038Z,1.854248
2022-12-06T02:13:53.691Z,1.87439
2022-12-06T02:15:03.380Z,1.844177
2022-12-06T02:16:12.058Z,1.803894
2022-12-06T02:17:21.694Z,1.813965
2022-12-06T02:18:30.337Z,1.854248
2022-12-06T02:19:39.017Z,1.894531
2022-12-06T02:20:48.709Z,1.894531
2022-12-06T02:21:57.361Z,1.894531
2022-12-06T02:23:07.034Z,1.894531
2022-12-06T02:24:16.699Z,1.854248
2022-12-06T02:25:25.365Z,1.854248
2022-12-06T02:26:35.068Z,1.813965
2022-12-06T02:27:43.735Z,1.844177
2022-12-06T02:28:52.409Z,1.844177
2022-12-06T02:30:02.258Z,1.844177
2022-12-06T02:31:10.819Z,1.803894
2022-12-06T02:32:19.439Z,1.803894
2022-12-06T02:33:29.076Z,1.783752
2022-12-06T02:34:38.745Z,1.813965
2022-12-06T02:35:48.402Z,1.783752
2022-12-06T02:36:58.083Z,1.803894
2022-12-06T02:38:11.527Z,1.773682
2022-12-06T02:39:16.441Z,1.743469
2022-12-06T02:40:25.082Z,1.733398
2022-12-06T02:41:33.737Z,1.683044
2022-12-06T02:42:43.462Z,1.683044
2022-12-06T02:43:51.095Z,1.662903
2022-12-06T02:45:00.745Z,1.62262
2022-12-06T02:46:09.450Z,1.602478
2022-12-06T02:47:17.075Z,1.582336
2022-12-06T02:48:26.773Z,1.62262
2022-12-06T02:49:35.477Z,1.63269
2022-12-06T02:50:45.145Z,1.602478
2022-12-06T02:51:54.813Z,1.592407
2022-12-06T02:53:03.477Z,1.582336
2022-12-06T02:54:13.149Z,1.582336
2022-12-06T02:55:21.855Z,1.562195
2022-12-06T02:56:29.507Z,1.552124
2022-12-06T02:57:39.186Z,1.531982
2022-12-06T02:58:46.833Z,1.531982
2022-12-06T02:59:56.554Z,1.531982
2022-12-06T03:01:06.234Z,1.491699
2022-12-06T03:02:13.863Z,1.491699
2022-12-06T03:03:23.483Z,1.451416
2022-12-06T03:04:33.171Z,1.441345
2022-12-06T03:05:41.810Z,1.401062
2022-12-06T03:06:51.488Z,1.38092
2022-12-06T03:08:00.196Z,1.350708
2022-12-06T03:09:08.774Z,1.340637
2022-12-06T03:10:18.454Z,1.320496
2022-12-06T03:11:27.101Z,1.310425
2022-12-06T03:12:36.764Z,1.260071
2022-12-06T03:13:46.422Z,1.219788
2022-12-06T03:14:55.083Z,1.159363
2022-12-06T03:16:04.830Z,1.12915
2022-12-06T03:17:14.405Z,1.12915
2022-12-06T03:18:23.093Z,1.11908
2022-12-06T03:19:31.739Z,1.058655
2022-12-06T03:20:40.421Z,1.048584
2022-12-06T03:21:50.053Z,1.038513
2022-12-06T03:22:58.709Z,1.018372
2022-12-06T03:24:06.386Z,1.018372
2022-12-06T03:25:16.054Z,1.008301
2022-12-06T03:26:23.709Z,1.048584
2022-12-06T03:27:33.365Z,1.058655
2022-12-06T03:28:43.028Z,1.048584
2022-12-06T03:29:50.718Z,1.038513
2022-12-06T03:31:00.450Z,0.957947
2022-12-06T03:32:10.038Z,0.947876
2022-12-06T03:33:18.688Z,0.937805
2022-12-06T03:34:28.356Z,0.907593
2022-12-06T03:35:37.028Z,0.917664
2022-12-06T03:36:45.716Z,0.937805
2022-12-06T03:37:55.345Z,0.937805
2022-12-06T03:39:03.990Z,0.957947
2022-12-06T03:40:13.665Z,0.947876
2022-12-06T03:41:22.332Z,0.917664
2022-12-06T03:42:31.000Z,0.937805
2022-12-06T03:43:39.664Z,0.947876
2022-12-06T03:44:49.326Z,0.957947
2022-12-06T03:45:58.177Z,0.988159
2022-12-06T03:47:07.716Z,1.008301
2022-12-06T03:48:17.299Z,1.018372
2022-12-06T03:49:26.943Z,1.008301
2022-12-06T03:50:35.667Z,1.008301
2022-12-06T03:51:43.344Z,1.018372
2022-12-06T03:52:53.085Z,1.018372
2022-12-06T03:54:01.734Z,0.988159
2022-12-06T03:55:11.381Z,0.978088
2022-12-06T03:56:20.042Z,0.957947
2022-12-06T03:57:28.691Z,0.937805
2022-12-06T03:58:38.372Z,0.937805
2022-12-06T03:59:47.026Z,0.87738
2022-12-06T04:00:56.680Z,0.86731
2022-12-06T04:02:06.399Z,0.857239
2022-12-06T04:03:13.985Z,0.827026
2022-12-06T04:04:23.673Z,0.837097
2022-12-06T04:05:31.327Z,0.827026
2022-12-06T04:06:39.982Z,0.857239
2022-12-06T04:07:49.652Z,0.907593
2022-12-06T04:08:58.312Z,0.917664
2022-12-06T04:10:07.959Z,0.917664
2022-12-06T04:11:17.638Z,0.947876
2022-12-06T04:12:25.300Z,0.957947
2022-12-06T04:13:34.981Z,1.008301
2022-12-06T04:14:42.644Z,1.018372
2022-12-06T04:15:51.355Z,1.018372
2022-12-06T04:16:59.957Z,1.008301
2022-12-06T04:18:09.630Z,1.038513
2022-12-06T04:19:18.307Z,1.008301
2022-12-06T04:20:27.968Z,0.988159
2022-12-06T04:21:37.655Z,0.957947
2022-12-06T04:22:46.307Z,0.917664
2022-12-06T04:23:54.965Z,0.87738
2022-12-06T04:25:05.646Z,0.87738
2022-12-06T04:26:14.307Z,0.86731
2022-12-06T04:27:22.973Z,0.86731
2022-12-06T04:28:32.632Z,0.857239
2022-12-06T04:29:41.286Z,0.86731
2022-12-06T04:30:50.940Z,0.837097
2022-12-06T04:31:59.750Z,0.86731
2022-12-06T04:33:08.322Z,0.837097
2022-12-06T04:34:17.997Z,0.857239
2022-12-06T04:35:27.764Z,0.857239
2022-12-06T04:36:37.444Z,0.857239
2022-12-06T04:37:47.190Z,0.827026
2022-12-06T04:38:55.873Z,0.766602
2022-12-06T04:40:05.532Z,0.686035
2022-12-06T04:41:14.213Z,0.655823
2022-12-06T04:42:22.937Z,0.62561
2022-12-06T04:43:32.586Z,0.62561
2022-12-06T04:44:41.276Z,0.655823
2022-12-06T04:45:49.950Z,0.726318
2022-12-06T04:46:59.680Z,0.736389
2022-12-06T04:48:07.280Z,0.766602
2022-12-06T04:49:16.945Z,0.806885
2022-12-06T04:50:25.624Z,0.827026
2022-12-06T04:51:34.274Z,0.806885
2022-12-06T04:52:43.957Z,0.806885
2022-12-06T04:53:52.623Z,0.796814
2022-12-06T04:55:01.270Z,0.776672
2022-12-06T04:56:09.951Z,0.776672
2022-12-06T04:57:17.623Z,0.796814
2022-12-06T04:58:27.258Z,0.776672
2022-12-06T04:59:35.913Z,0.806885
2022-12-06T05:00:43.653Z,0.796814
2022-12-06T05:01:53.257Z,0.806885
2022-12-06T05:03:00.908Z,0.837097
2022-12-06T05:04:09.605Z,0.907593
2022-12-06T05:05:19.226Z,0.87738
2022-12-06T05:06:27.879Z,0.907593
2022-12-06T05:07:36.581Z,0.87738
2022-12-06T05:08:46.228Z,0.937805
2022-12-06T05:09:53.877Z,0.947876
2022-12-06T05:11:03.561Z,0.978088
2022-12-06T05:12:12.218Z,0.978088
2022-12-06T05:13:20.934Z,0.988159
2022-12-06T05:14:30.592Z,1.008301
2022-12-06T05:15:40.262Z,1.038513
2022-12-06T05:16:50.017Z,1.038513
2022-12-06T05:17:58.716Z,1.038513
2022-12-06T05:19:06.379Z,1.018372
2022-12-06T05:20:16.064Z,1.018372
2022-12-06T05:21:24.755Z,1.018372
2022-12-06T05:22:33.397Z,1.038513
2022-12-06T05:23:43.157Z,1.018372
2022-12-06T05:24:51.858Z,0.988159
2022-12-06T05:26:01.547Z,0.988159
2022-12-06T05:27:10.221Z,0.988159
2022-12-06T05:28:17.875Z,0.957947
2022-12-06T05:29:27.580Z,0.947876
2022-12-06T05:30:37.270Z,0.917664
2022-12-06T05:31:45.988Z,0.937805
2022-12-06T05:32:57.114Z,0.917664
2022-12-06T05:34:03.265Z,0.937805
2022-12-06T05:35:11.935Z,0.988159
2022-12-06T05:36:20.628Z,1.018372
2022-12-06T05:37:28.274Z,1.008301
2022-12-06T05:38:36.952Z,1.038513
2022-12-06T05:39:46.600Z,1.038513
2022-12-06T05:40:56.404Z,1.048584
2022-12-06T05:42:06.114Z,1.048584
2022-12-06T05:43:15.840Z,1.058655
2022-12-06T05:44:25.553Z,1.078796
2022-12-06T05:45:34.266Z,1.058655
2022-12-06T05:46:41.882Z,1.048584
2022-12-06T05:47:51.627Z,1.038513
2022-12-06T05:48:59.287Z,1.048584
2022-12-06T05:50:08.951Z,1.038513
2022-12-06T05:51:18.634Z,1.038513
2022-12-06T05:52:27.285Z,1.018372
2022-12-06T05:53:37.957Z,1.038513
2022-12-06T05:54:46.918Z,1.038513
2022-12-06T05:55:57.472Z,1.038513
2022-12-06T05:57:08.144Z,1.048584
2022-12-06T05:58:16.781Z,1.048584
2022-12-06T05:59:26.463Z,1.048584
2022-12-06T06:00:35.138Z,1.048584
2022-12-06T06:01:44.881Z,1.048584
2022-12-06T06:02:54.602Z,1.038513
2022-12-06T06:04:03.156Z,1.018372
2022-12-06T06:05:12.815Z,1.008301
2022-12-06T06:06:22.480Z,1.008301
2022-12-06T06:07:31.155Z,1.018372
2022-12-06T06:08:39.792Z,1.008301
2022-12-06T06:09:48.437Z,0.988159
2022-12-06T06:10:56.108Z,0.978088
2022-12-06T06:12:09.497Z,0.947876
2022-12-06T06:13:15.405Z,0.937805
2022-12-06T06:14:25.093Z,0.947876
2022-12-06T06:15:33.765Z,0.947876
2022-12-06T06:16:42.578Z,0.957947
2022-12-06T06:17:52.211Z,0.978088
2022-12-06T06:19:01.874Z,0.978088
2022-12-06T06:20:10.533Z,0.978088
2022-12-06T06:21:20.223Z,0.957947
2022-12-06T06:22:27.913Z,0.988159
2022-12-06T06:23:37.573Z,0.978088
2022-12-06T06:24:46.234Z,0.988159
2022-12-06T06:25:53.883Z,1.008301
2022-12-06T06:27:03.566Z,1.038513
2022-12-06T06:28:12.253Z,1.038513
2022-12-06T06:29:21.904Z,1.048584
2022-12-06T06:30:31.580Z,1.038513
2022-12-06T06:31:40.255Z,1.018372
2022-12-06T06:32:49.895Z,1.048584
2022-12-06T06:33:59.653Z,1.048584
2022-12-06T06:35:08.303Z,1.048584
2022-12-06T06:36:17.958Z,1.048584
2022-12-06T06:37:27.197Z,1.018372
2022-12-06T06:38:36.856Z,0.988159
2022-12-06T06:39:46.587Z,0.988159
2022-12-06T06:40:54.239Z,0.988159
2022-12-06T06:42:03.915Z,1.008301
2022-12-06T06:43:12.592Z,1.018372
2022-12-06T06:44:22.252Z,1.038513
2022-12-06T06:45:31.929Z,1.018372
2022-12-06T06:46:39.593Z,1.038513
2022-12-06T06:47:48.261Z,1.058655
2022-12-06T06:48:57.939Z,1.058655
2022-12-06T06:50:06.630Z,1.058655
2022-12-06T06:51:16.284Z,1.078796
2022-12-06T06:52:25.999Z,1.12915
2022-12-06T06:53:34.718Z,1.12915
2022-12-06T06:54:44.392Z,1.139221
2022-12-06T06:55:53.057Z,1.139221
2022-12-06T06:57:02.794Z,1.139221
2022-12-06T06:58:13.437Z,1.189575
2022-12-06T06:59:21.103Z,1.229858
2022-12-06T07:00:30.842Z,1.239929
2022-12-06T07:01:40.518Z,1.260071
2022-12-06T07:02:49.167Z,1.260071
2022-12-06T07:03:58.803Z,1.260071
2022-12-06T07:05:07.481Z,1.280212
2022-12-06T07:06:16.183Z,1.310425
2022-12-06T07:07:25.812Z,1.320496
2022-12-06T07:08:34.582Z,1.37085
2022-12-06T07:09:44.298Z,1.350708
2022-12-06T07:10:52.960Z,1.401062
2022-12-06T07:12:00.645Z,1.401062
2022-12-06T07:13:10.311Z,1.411133
2022-12-06T07:14:17.990Z,1.411133
2022-12-06T07:15:26.670Z,1.441345
2022-12-06T07:16:36.432Z,1.441345
2022-12-06T07:17:45.102Z,1.441345
2022-12-06T07:18:53.698Z,1.481628
2022-12-06T07:20:03.435Z,1.491699
2022-12-06T07:21:12.056Z,1.50177
2022-12-06T07:22:21.886Z,1.521912
2022-12-06T07:23:29.518Z,1.521912
2022-12-06T07:24:41.759Z,1.531982
2022-12-06T07:25:48.848Z,1.531982
2022-12-06T07:26:56.526Z,1.552124
2022-12-06T07:28:06.189Z,1.531982
2022-12-06T07:29:15.870Z,1.552124
2022-12-06T07:30:27.475Z,1.562195
2022-12-06T07:31:34.309Z,1.582336
2022-12-06T07:32:43.945Z,1.562195
2022-12-06T07:33:53.686Z,1.582336
2022-12-06T07:35:03.319Z,1.582336
2022-12-06T07:36:13.478Z,1.602478
2022-12-06T07:37:21.692Z,1.62262
2022-12-06T07:38:30.408Z,1.63269
2022-12-06T07:39:40.059Z,1.62262
2022-12-06T07:41:04.278Z,1.63269
2022-12-06T07:42:00.392Z,1.63269
2022-12-06T07:43:09.081Z,1.63269
2022-12-06T07:44:19.426Z,1.62262
2022-12-06T07:45:28.197Z,1.63269
2022-12-06T07:46:38.014Z,1.602478
2022-12-06T07:47:47.669Z,1.602478
2022-12-06T07:48:56.349Z,1.582336
2022-12-06T07:50:06.037Z,1.562195
2022-12-06T07:51:16.697Z,1.552124
2022-12-06T07:52:26.393Z,1.521912
2022-12-06T07:53:35.116Z,1.50177
2022-12-06T07:54:43.770Z,1.531982
2022-12-06T07:55:53.447Z,1.582336
2022-12-06T07:57:02.109Z,1.592407
2022-12-06T07:58:11.847Z,1.672974
2022-12-06T07:59:20.473Z,1.773682
2022-12-06T08:00:28.156Z,1.813965
2022-12-06T08:01:37.865Z,1.88446
2022-12-06T08:02:45.480Z,1.954956
2022-12-06T08:03:54.164Z,2.065735
2022-12-06T08:05:03.804Z,2.146301
2022-12-06T08:06:12.490Z,2.428284
2022-12-06T08:07:22.189Z,2.539062
2022-12-06T08:08:30.900Z,2.639771
2022-12-06T08:09:39.575Z,2.770691
2022-12-06T08:10:49.247Z,2.861328
2022-12-06T08:11:56.933Z,2.901611
2022-12-06T08:13:05.600Z,2.901611
2022-12-06T08:14:15.295Z,3.163452
2022-12-06T08:15:22.961Z,3.324585
2022-12-06T08:16:32.795Z,3.445435
2022-12-06T08:17:41.308Z,3.656921
2022-12-06T08:18:49.012Z,3.697205
2022-12-06T08:19:59.070Z,3.677063
2022-12-06T08:21:06.365Z,3.505859
2022-12-06T08:22:15.010Z,3.586426
2022-12-06T08:23:27.988Z,3.596497
2022-12-06T08:24:35.343Z,3.586426
2022-12-06T08:25:45.041Z,3.576355
2022-12-06T08:26:54.708Z,3.878479
2022-12-06T08:28:02.373Z,3.918762
2022-12-06T08:29:12.056Z,3.938904
2022-12-06T08:30:19.715Z,3.989258
2022-12-06T08:31:28.427Z,4.311523
2022-12-06T08:32:38.061Z,4.714355
2022-12-06T08:33:46.744Z,4.865417
2022-12-06T08:34:56.421Z,4.966125
2022-12-06T08:36:05.089Z,5.117188
2022-12-06T08:37:13.745Z,4.996338
2022-12-06T08:38:23.481Z,5.227966
2022-12-06T08:39:31.159Z,5.358887
2022-12-06T08:40:39.864Z,5.509949
2022-12-06T08:41:49.576Z,5.610657
2022-12-06T08:42:58.219Z,5.691223
2022-12-06T08:44:07.918Z,5.791931
2022-12-06T08:45:16.606Z,5.661011
2022-12-06T08:46:25.354Z,5.248108
2022-12-06T08:47:35.037Z,5.137329
2022-12-06T08:48:43.785Z,5.117188
2022-12-06T08:49:52.358Z,4.956055
2022-12-06T08:51:02.030Z,4.784851
2022-12-06T08:52:10.687Z,4.815063
2022-12-06T08:53:19.352Z,4.704285
2022-12-06T08:54:28.006Z,4.674072
2022-12-06T08:55:35.654Z,4.482727
2022-12-06T08:56:45.337Z,4.402161
2022-12-06T08:57:53.040Z,4.261169
2022-12-06T08:59:02.685Z,4.200745
2022-12-06T09:00:12.338Z,4.100037
2022-12-06T09:01:21.064Z,4.049683
2022-12-06T09:02:28.631Z,3.959045
2022-12-06T09:03:37.328Z,4.01947
2022-12-06T09:04:46.067Z,3.918762
2022-12-06T09:05:55.675Z,3.828125
2022-12-06T09:07:06.303Z,3.807983
2022-12-06T09:08:13.052Z,3.737488
2022-12-06T09:09:22.640Z,3.697205
2022-12-06T09:10:30.312Z,3.727417
2022-12-06T09:11:39.966Z,3.7677
2022-12-06T09:12:48.652Z,3.777771
2022-12-06T09:13:56.325Z,3.777771
2022-12-06T09:15:05.995Z,3.737488
2022-12-06T09:16:15.773Z,3.656921
2022-12-06T09:17:24.343Z,3.656921
2022-12-06T09:18:34.000Z,3.677063
2022-12-06T09:19:41.662Z,3.697205
2022-12-06T09:20:51.328Z,3.656921
2022-12-06T09:21:59.999Z,3.697205
2022-12-06T09:23:07.648Z,3.697205
2022-12-06T09:24:17.336Z,3.697205
2022-12-06T09:25:25.045Z,3.586426
2022-12-06T09:26:34.803Z,3.526001
2022-12-06T09:27:44.445Z,3.546143
2022-12-06T09:28:54.112Z,3.616638
2022-12-06T09:30:03.999Z,3.626709
2022-12-06T09:31:13.490Z,3.677063
2022-12-06T09:32:22.110Z,3.687134
2022-12-06T09:33:30.771Z,3.727417
2022-12-06T09:34:39.447Z,3.7677
2022-12-06T09:35:48.118Z,3.797913
2022-12-06T09:36:57.790Z,3.777771
2022-12-06T09:38:05.486Z,3.777771
2022-12-06T09:39:15.144Z,3.777771
2022-12-06T09:40:24.816Z,3.858337
2022-12-06T09:41:32.474Z,3.878479
2022-12-06T09:42:42.145Z,3.807983
2022-12-06T09:43:49.852Z,3.797913
2022-12-06T09:44:58.527Z,3.807983
2022-12-06T09:46:08.309Z,3.757629
2022-12-06T09:47:16.864Z,3.777771
2022-12-06T09:48:26.512Z,3.807983
2022-12-06T09:49:34.186Z,3.838196
2022-12-06T09:50:43.845Z,3.838196
2022-12-06T09:51:52.512Z,3.807983
2022-12-06T09:53:00.153Z,3.797913
2022-12-06T09:54:09.803Z,3.828125
2022-12-06T09:55:18.500Z,3.838196
2022-12-06T09:56:27.145Z,3.838196
2022-12-06T09:57:36.821Z,3.858337
2022-12-06T09:58:44.484Z,3.858337
2022-12-06T09:59:54.147Z,3.858337
2022-12-06T10:01:02.826Z,3.838196
2022-12-06T10:02:10.620Z,3.838196
2022-12-06T10:03:21.215Z,3.908691
2022-12-06T10:04:28.787Z,3.918762
2022-12-06T10:05:37.460Z,3.948975
2022-12-06T10:06:48.157Z,3.948975
2022-12-06T10:07:55.973Z,3.948975
2022-12-06T10:09:05.720Z,3.938904
2022-12-06T10:10:15.255Z,3.948975
2022-12-06T10:11:22.914Z,3.959045
2022-12-06T10:12:32.604Z,3.989258
2022-12-06T10:13:40.258Z,4.01947
2022-12-06T10:14:48.909Z,4.039612
2022-12-06T10:15:58.661Z,4.01947
2022-12-06T10:17:09.390Z,4.100037
2022-12-06T10:18:16.939Z,4.100037
2022-12-06T10:19:26.575Z,4.14032
2022-12-06T10:20:35.243Z,4.190674
2022-12-06T10:21:44.909Z,4.230957
2022-12-06T10:22:53.574Z,4.241028
2022-12-06T10:24:02.455Z,4.261169
2022-12-06T10:25:11.916Z,4.241028
2022-12-06T10:26:20.576Z,4.220886
2022-12-06T10:27:30.237Z,4.230957
2022-12-06T10:28:40.885Z,4.261169
2022-12-06T10:29:50.574Z,4.311523
2022-12-06T10:31:00.280Z,4.321594
2022-12-06T10:32:07.889Z,4.341736
2022-12-06T10:33:16.580Z,4.301453
2022-12-06T10:34:26.266Z,4.301453
2022-12-06T10:35:34.910Z,4.281311
2022-12-06T10:36:44.579Z,4.321594
2022-12-06T10:37:53.225Z,4.341736
2022-12-06T10:39:01.874Z,4.321594
2022-12-06T10:40:11.548Z,4.311523
2022-12-06T10:41:20.258Z,4.301453
2022-12-06T10:42:28.904Z,4.311523
2022-12-06T10:43:37.575Z,4.341736
2022-12-06T10:44:45.228Z,4.301453
2022-12-06T10:45:54.894Z,4.241028
2022-12-06T10:47:05.815Z,4.241028
2022-12-06T10:48:13.285Z,4.241028
2022-12-06T10:49:22.938Z,4.241028
2022-12-06T10:50:30.621Z,4.261169
2022-12-06T10:51:39.252Z,4.261169
2022-12-06T10:52:48.942Z,4.281311
2022-12-06T10:53:58.578Z,4.311523
2022-12-06T10:55:08.245Z,4.301453
2022-12-06T10:56:16.913Z,4.311523
2022-12-06T10:57:26.584Z,4.321594
2022-12-06T10:58:36.256Z,4.341736
2022-12-06T10:59:44.911Z,4.311523
2022-12-06T11:00:54.609Z,4.341736
2022-12-06T11:02:04.283Z,4.341736
2022-12-06T11:03:11.881Z,4.281311
2022-12-06T11:04:21.608Z,4.301453
2022-12-06T11:05:30.302Z,4.321594
2022-12-06T11:06:37.971Z,4.311523
2022-12-06T11:07:48.656Z,4.311523
2022-12-06T11:08:56.281Z,4.301453
2022-12-06T11:10:04.959Z,4.301453
2022-12-06T11:11:14.644Z,4.311523
2022-12-06T11:12:25.310Z,4.341736
2022-12-06T11:13:31.955Z,4.321594
2022-12-06T11:14:40.627Z,4.321594
2022-12-06T11:15:48.310Z,4.311523
2022-12-06T11:16:57.982Z,4.351807
2022-12-06T11:18:05.645Z,4.311523
2022-12-06T11:19:14.308Z,4.301453
2022-12-06T11:20:23.959Z,4.301453
2022-12-06T11:21:33.658Z,4.301453
2022-12-06T11:22:43.338Z,4.311523
2022-12-06T11:23:52.976Z,4.301453
2022-12-06T11:25:01.643Z,4.281311
2022-12-06T11:26:11.314Z,4.301453
2022-12-06T11:27:19.998Z,4.301453
2022-12-06T11:28:28.678Z,4.311523
2022-12-06T11:29:38.335Z,4.311523
2022-12-06T11:30:46.986Z,4.321594
2022-12-06T11:31:56.748Z,4.321594
2022-12-06T11:33:05.329Z,4.371948
2022-12-06T11:34:14.079Z,4.351807
2022-12-06T11:35:23.687Z,4.382019
2022-12-06T11:36:31.366Z,4.412231
2022-12-06T11:37:44.206Z,4.412231
2022-12-06T11:38:49.715Z,4.422302
2022-12-06T11:39:59.617Z,4.442444
2022-12-06T11:41:09.073Z,4.442444
2022-12-06T11:42:19.780Z,4.482727
2022-12-06T11:43:27.433Z,4.492798
2022-12-06T11:44:37.191Z,4.563293
2022-12-06T11:45:46.847Z,4.623718
2022-12-06T11:46:56.680Z,4.714355
2022-12-06T11:48:05.242Z,4.89563
2022-12-06T11:49:13.921Z,4.996338
2022-12-06T11:50:23.669Z,5.076904
2022-12-06T11:51:32.330Z,5.117188
2022-12-06T11:52:42.003Z,5.1474
2022-12-06T11:53:51.724Z,5.097046
2022-12-06T11:55:00.826Z,5.016479
2022-12-06T11:56:10.076Z,5.016479
2022-12-06T11:57:22.372Z,4.996338
2022-12-06T11:58:27.441Z,4.996338
2022-12-06T11:59:37.109Z,5.016479
2022-12-06T12:00:44.787Z,4.956055
2022-12-06T12:01:54.544Z,4.915771
2022-12-06T12:03:03.207Z,4.885559
2022-12-06T12:04:10.821Z,4.804993
2022-12-06T12:05:20.489Z,4.754639
2022-12-06T12:06:29.154Z,4.734497
2022-12-06T12:07:39.025Z,4.734497
2022-12-06T12:08:48.668Z,4.744568
2022-12-06T12:09:57.407Z,4.704285
2022-12-06T12:11:07.051Z,4.664001
2022-12-06T12:12:15.720Z,4.623718
2022-12-06T12:13:24.463Z,4.623718
2022-12-06T12:14:34.145Z,4.623718
2022-12-06T12:15:43.804Z,4.583435
2022-12-06T12:16:53.531Z,4.52301
2022-12-06T12:18:03.192Z,4.492798
2022-12-06T12:19:11.889Z,4.502869
2022-12-06T12:20:21.643Z,4.442444
2022-12-06T12:21:31.322Z,4.442444
2022-12-06T12:22:39.999Z,4.442444
2022-12-06T12:23:49.680Z,4.442444
2022-12-06T12:25:27.445Z,4.452515
2022-12-06T12:26:09.036Z,4.442444
2022-12-06T12:27:22.177Z,4.402161
2022-12-06T12:28:29.348Z,4.422302
2022-12-06T12:29:39.013Z,4.412231
2022-12-06T12:30:47.713Z,4.422302
2022-12-06T12:31:57.481Z,4.382019
2022-12-06T12:33:06.146Z,4.402161
2022-12-06T12:34:14.788Z,4.351807
2022-12-06T12:35:23.465Z,4.371948
2022-12-06T12:36:33.189Z,4.371948
2022-12-06T12:37:41.857Z,4.382019
2022-12-06T12:38:51.553Z,4.382019
2022-12-06T12:40:00.234Z,4.402161
2022-12-06T12:41:10.875Z,4.402161
2022-12-06T12:42:20.598Z,4.402161
2022-12-06T12:43:29.236Z,4.402161
2022-12-06T12:44:39.648Z,4.382019
2022-12-06T12:45:48.566Z,4.402161
2022-12-06T12:46:58.200Z,4.412231
2022-12-06T12:48:07.888Z,4.442444
2022-12-06T12:49:17.605Z,4.442444
2022-12-06T12:50:25.276Z,4.402161
2022-12-06T12:51:35.015Z,4.402161
2022-12-06T12:52:44.675Z,4.412231
2022-12-06T12:53:53.395Z,4.442444
2022-12-06T12:55:03.318Z,4.422302
2022-12-06T12:56:11.726Z,4.482727
2022-12-06T12:57:21.398Z,4.482727
2022-12-06T12:58:35.804Z,4.482727
2022-12-06T12:59:40.774Z,4.482727
2022-12-06T13:00:50.533Z,4.452515
2022-12-06T13:01:59.141Z,4.452515
2022-12-06T13:03:14.250Z,4.452515
2022-12-06T13:04:18.401Z,4.442444
2022-12-06T13:05:34.468Z,4.442444
2022-12-06T13:06:35.727Z,4.452515
2022-12-06T13:07:44.421Z,4.452515
2022-12-06T13:08:53.052Z,4.442444
2022-12-06T13:10:02.730Z,4.442444
2022-12-06T13:11:12.473Z,4.422302
2022-12-06T13:12:21.154Z,4.422302
2022-12-06T13:13:30.823Z,4.412231
2022-12-06T13:14:39.504Z,4.402161
2022-12-06T13:15:49.173Z,4.402161
2022-12-06T13:16:57.888Z,4.402161
2022-12-06T13:18:06.529Z,4.402161
2022-12-06T13:19:16.216Z,4.382019
2022-12-06T13:20:24.872Z,4.382019
2022-12-06T13:21:33.540Z,4.412231
2022-12-06T13:22:43.239Z,4.422302
2022-12-06T13:23:51.923Z,4.412231
2022-12-06T13:25:01.597Z,4.412231
2022-12-06T13:26:11.283Z,4.422302
2022-12-06T13:27:18.933Z,4.452515
2022-12-06T13:28:28.748Z,4.452515
2022-12-06T13:29:38.428Z,4.492798
2022-12-06T13:30:47.197Z,4.502869
2022-12-06T13:31:56.779Z,4.533081
2022-12-06T13:33:04.456Z,4.553223